Sun Valley, CA

11:00 AM PDT on August 30, 2015 (GMT -0700)
Burbank-Glendale-Pasadena | | Change Station
CLOSE
Current Station
Airport
Location: Burbank,
Elevation: 774 ft
Nearby Weather Stations

Elev 774 ft 34.20 °N, 118.36 °W | Updated 7 minutes ago

Clear
Clear
86 °F
Feels Like 86 °F
N
9
Wind Variable Wind from ESE
Gusts 18 mph

Today
High -- | Low -- °F
--% Chance of Precip.
Yesterday
High -- | Low -- °F
Precip. -- in
6:25 AM 7:22 PM
Full, 99% visible
Pressure 29.87 in
Visibility 10.0 miles
Clouds Clear
Heat Index 86 °F
Dew Point 62 °F
Humidity 44%
Rainfall 0.00 in
Snow Depth Not available.
UV 8 out of 12
Pollen 6.00 out of 12
Air Quality Not available.
Flu Activity Not available.
METAR KBUR 301753Z 11008G16KT 10SM CLR 30/17 A2992 RMK AO2 SLP115 T03000167 10300 20228 50001
Pressure 29.87 in
Visibility 10.0 miles
Clouds Clear
Heat Index 86 °F
Dew Point 62 °F
Humidity 44%
Rainfall 0.00 in
Snow Depth Not available.
UV 8 out of 12
Pollen 6.00 out of 12
Air Quality Not available.
Flu Activity Not available.
METAR KBUR 301753Z 11008G16KT 10SM CLR 30/17 A2992 RMK AO2 SLP115 T03000167 10300 20228 50001

10-Day Weather Forecast

×

Almanac

Astronomy

Aug. 30, 2015 Rise Set
Actual Time
Civil Twilight
Nautical Twilight
Astronomical Twilight
Moon
Length of Visible Light
Length of Day
Tomorrow will be .
, % of the Moon is Illuminated

Today's Extremes

State Highs State Lows

Community

WunderPhotos

Upload Photos

1,851,021 photos uploaded!

WunderBlogs® & News

Nearby

Air Quality

  Air Quality AQ Index Pollutant
Not available.

Snow Depth

Station Depth Elevation

Earthquake Activity

City Distance Mag. Time & Date
Minimum magnitude displayed is 2.5.

Coastal Water Temperatures

Place Temperature

Stations

Nearby Weather Stations

Station Location Temp. Windchill Dew Point Humidity Wind Precip. Elev Updated Type